Time;durP1;ratioP1;P1;durP2;ratioP2;P2;SDS_P1;SDS_P2;PMS_P1;PMS_P2;Temp;Humidity;BMP_temperature;BMP_pressure;BME280_temperature;BME280_humidity;BME280_pressure;Samples;Min_cycle;Max_cycle;Signal;HPM_P1;HPM_P2
2023/10/04 00:00:34;;;;;;;8.50;1.30;;;;;;;;;;6092808;23;20305;-76
2023/10/04 00:03:04;;;;;;;2.78;1.10;;;;;;;;;;6093946;23;20065;-77
2023/10/04 00:05:30;;;;;;;1.55;0.70;;;;;;;;;;6118740;23;20010;-78
2023/10/04 00:07:57;;;;;;;4.65;1.13;;;;;;;;;;6097344;23;20014;-78
2023/10/04 00:10:23;;;;;;;2.72;0.90;;;;;;;;;;6102566;23;20009;-77
2023/10/04 00:12:52;;;;;;;5.57;1.00;;;;;;;;;;6101538;23;20010;-78
2023/10/04 00:15:20;;;;;;;4.72;1.08;;;;;;;;;;6098196;23;20014;-78
2023/10/04 00:17:47;;;;;;;2.13;1.10;;;;;;;;;;6098998;23;20021;-76
2023/10/04 00:20:17;;;;;;;3.05;1.00;;;;;;;;;;6126004;23;20077;-77
2023/10/04 00:22:46;;;;;;;2.75;0.85;;;;;;;;;;6099712;23;20454;-78
2023/10/04 00:25:21;;;;;;;2.47;0.93;;;;;;;;;;6125431;23;20431;-77
2023/10/04 00:27:59;;;;;;;3.55;1.00;;;;;;;;;;6077042;23;20020;-75
2023/10/04 00:30:29;;;;;;;3.03;1.00;;;;;;;;;;6125223;23;20094;-77
2023/10/04 00:32:57;;;;;;;2.03;0.88;;;;;;;;;;6098781;23;20013;-77
2023/10/04 00:35:25;;;;;;;2.83;1.20;;;;;;;;;;6098744;23;20450;-79
2023/10/04 00:37:56;;;;;;;3.80;1.00;;;;;;;;;;6124277;23;20013;-78
2023/10/04 00:40:27;;;;;;;3.60;1.02;;;;;;;;;;6122384;23;20461;-75
2023/10/04 00:42:56;;;;;;;1.88;0.90;;;;;;;;;;6098033;23;20066;-78
2023/10/04 00:45:23;;;;;;;5.78;1.33;;;;;;;;;;6122488;23;20094;-77
2023/10/04 00:47:52;;;;;;;1.48;0.77;;;;;;;;;;6125428;23;20057;-78
2023/10/04 00:50:25;;;;;;;4.30;0.93;;;;;;;;;;6099780;23;20034;-77
2023/10/04 00:52:59;;;;;;;4.03;1.58;;;;;;;;;;6103245;23;20037;-76
2023/10/04 00:55:26;;;;;;;4.35;1.55;;;;;;;;;;6112888;23;20006;-75
2023/10/04 00:57:54;;;;;;;2.33;1.20;;;;;;;;;;6110142;23;20017;-76
2023/10/04 01:00:22;;;;;;;2.65;1.05;;;;;;;;;;6098980;23;20017;-76
2023/10/04 01:02:48;;;;;;;2.38;0.98;;;;;;;;;;6098596;23;20016;-79
2023/10/04 01:05:18;;;;;;;1.60;0.80;;;;;;;;;;6123280;23;20089;-76
2023/10/04 01:07:48;;;;;;;5.35;1.77;;;;;;;;;;6099035;23;20445;-76
2023/10/04 01:10:15;;;;;;;5.50;1.00;;;;;;;;;;6125083;23;20009;-77
2023/10/04 01:12:46;;;;;;;3.33;1.20;;;;;;;;;;6099543;23;20002;-79
2023/10/04 01:15:31;;;;;;;3.88;1.35;;;;;;;;;;6103705;23;20009;-76
2023/10/04 01:18:07;;;;;;;6.13;1.17;;;;;;;;;;6108372;23;20128;-77
2023/10/04 01:20:33;;;;;;;1.58;1.10;;;;;;;;;;6084705;23;20037;-77
2023/10/04 01:23:10;;;;;;;1.55;0.90;;;;;;;;;;6109111;23;20021;-76
2023/10/04 01:25:41;;;;;;;3.05;1.02;;;;;;;;;;6131109;23;20010;-76
2023/10/04 01:28:17;;;;;;;2.22;0.65;;;;;;;;;;6124228;23;20088;-78
2023/10/04 01:30:51;;;;;;;3.05;0.90;;;;;;;;;;6099408;23;20076;-77
2023/10/04 01:33:18;;;;;;;5.35;1.20;;;;;;;;;;6099861;23;20037;-77
2023/10/04 01:35:46;;;;;;;3.45;1.10;;;;;;;;;;6099734;23;20013;-78
2023/10/04 01:38:14;;;;;;;5.30;0.88;;;;;;;;;;6125955;23;20062;-76
2023/10/04 01:40:43;;;;;;;3.42;1.00;;;;;;;;;;6100081;23;20113;-76
2023/10/04 01:43:18;;;;;;;4.32;1.20;;;;;;;;;;6100849;23;20014;-77
2023/10/04 01:45:57;;;;;;;2.83;1.00;;;;;;;;;;6101498;23;20009;-77
2023/10/04 01:48:30;;;;;;;5.85;1.00;;;;;;;;;;6133669;23;20057;-75
2023/10/04 01:50:56;;;;;;;4.68;1.20;;;;;;;;;;6106662;23;20002;-78
2023/10/04 01:53:24;;;;;;;2.92;1.30;;;;;;;;;;6130158;23;20012;-77
2023/10/04 01:55:50;;;;;;;5.57;1.00;;;;;;;;;;6133622;23;20013;-78
2023/10/04 01:58:21;;;;;;;2.13;1.05;;;;;;;;;;6133626;23;19998;-77
2023/10/04 02:00:47;;;;;;;4.57;1.17;;;;;;;;;;6104119;23;20096;-77
2023/10/04 02:03:14;;;;;;;3.08;0.65;;;;;;;;;;6102816;23;20064;-77
2023/10/04 02:05:41;;;;;;;2.97;1.00;;;;;;;;;;6126248;23;20006;-78
2023/10/04 02:08:15;;;;;;;1.13;0.80;;;;;;;;;;6102678;23;20325;-77
2023/10/04 02:10:50;;;;;;;4.13;1.00;;;;;;;;;;6101267;23;20522;-77
2023/10/04 02:13:17;;;;;;;2.28;0.90;;;;;;;;;;6099720;23;20005;-78
2023/10/04 02:15:51;;;;;;;1.45;0.80;;;;;;;;;;6100404;23;20021;-79
2023/10/04 02:18:21;;;;;;;2.67;1.02;;;;;;;;;;6127478;23;20017;-77
2023/10/04 02:20:49;;;;;;;2.65;1.05;;;;;;;;;;6126814;23;20006;-78
2023/10/04 02:23:18;;;;;;;2.75;1.33;;;;;;;;;;6127656;23;20010;-75
2023/10/04 02:25:48;;;;;;;1.55;0.90;;;;;;;;;;6104821;23;20053;-78
2023/10/04 02:28:23;;;;;;;2.90;1.17;;;;;;;;;;6113345;23;20036;-75
2023/10/04 02:30:55;;;;;;;2.03;1.23;;;;;;;;;;6142341;23;20013;-76
2023/10/04 02:33:38;;;;;;;4.28;1.13;;;;;;;;;;6131473;23;20013;-76
2023/10/04 02:36:07;;;;;;;4.03;0.90;;;;;;;;;;6124497;23;20441;-77
2023/10/04 02:38:36;;;;;;;2.05;0.98;;;;;;;;;;6099034;23;20029;-78
2023/10/04 02:41:13;;;;;;;3.58;1.45;;;;;;;;;;6080844;23;20005;-77
2023/10/04 02:43:40;;;;;;;2.85;1.13;;;;;;;;;;6123982;23;20037;-76
2023/10/04 02:46:06;;;;;;;2.65;1.05;;;;;;;;;;6100242;23;20017;-78
2023/10/04 02:48:35;;;;;;;5.90;1.23;;;;;;;;;;6098844;23;20091;-77
2023/10/04 02:51:02;;;;;;;2.67;0.93;;;;;;;;;;6099198;23;20002;-77
2023/10/04 02:53:29;;;;;;;6.25;1.58;;;;;;;;;;6098398;23;20013;-79
2023/10/04 02:55:58;;;;;;;2.97;1.13;;;;;;;;;;6123594;23;20097;-77
2023/10/04 02:58:24;;;;;;;3.67;1.10;;;;;;;;;;6098467;23;20009;-77
2023/10/04 03:00:51;;;;;;;2.20;1.40;;;;;;;;;;6098348;23;20010;-78
2023/10/04 03:03:24;;;;;;;3.63;1.00;;;;;;;;;;6124715;23;20035;-77
2023/10/04 03:05:57;;;;;;;2.83;0.98;;;;;;;;;;6099470;23;20228;-77
2023/10/04 03:08:24;;;;;;;3.55;0.77;;;;;;;;;;6100244;23;20316;-77
2023/10/04 03:10:54;;;;;;;1.73;0.90;;;;;;;;;;6126849;23;20332;-78
2023/10/04 03:13:25;;;;;;;2.47;0.80;;;;;;;;;;6109729;23;20075;-77
2023/10/04 03:15:52;;;;;;;1.07;0.80;;;;;;;;;;6142267;23;20009;-78
2023/10/04 03:18:19;;;;;;;4.50;1.08;;;;;;;;;;6140414;23;20025;-78
2023/10/04 03:21:30;;;;;;;1.45;0.70;;;;;;;;;;6077808;23;20340;-78
2023/10/04 03:23:40;;;;;;;4.25;1.52;;;;;;;;;;6108267;23;20037;-78
2023/10/04 03:26:06;;;;;;;;;;;;;;;;;;6104451;23;20020;-78
2023/10/04 03:28:36;;;;;;;1.38;1.05;;;;;;;;;;6109643;23;19905;-77
2023/10/04 03:31:07;;;;;;;2.05;1.10;;;;;;;;;;6104410;23;20009;-78
2023/10/04 03:33:37;;;;;;;3.10;1.00;;;;;;;;;;6102954;23;20042;-79
2023/10/04 03:36:07;;;;;;;5.55;1.52;;;;;;;;;;6103288;23;20010;-78
2023/10/04 03:38:34;;;;;;;3.17;1.05;;;;;;;;;;6126824;23;20012;-76
2023/10/04 03:41:04;;;;;;;3.28;1.10;;;;;;;;;;6099690;23;20435;-78
2023/10/04 03:43:31;;;;;;;4.20;1.73;;;;;;;;;;6099319;23;20089;-77
2023/10/04 03:45:57;;;;;;;2.25;1.00;;;;;;;;;;6100033;23;20009;-76
2023/10/04 03:48:23;;;;;;;3.50;1.45;;;;;;;;;;6099755;23;20002;-77
2023/10/04 03:50:51;;;;;;;2.15;1.23;;;;;;;;;;6099604;23;20001;-78
2023/10/04 03:53:21;;;;;;;1.88;1.00;;;;;;;;;;6123780;23;20014;-78
2023/10/04 03:55:50;;;;;;;2.17;1.17;;;;;;;;;;6123356;23;20041;-76
2023/10/04 03:58:20;;;;;;;1.75;1.13;;;;;;;;;;6099318;23;20025;-78
2023/10/04 04:00:47;;;;;;;6.10;1.55;;;;;;;;;;6123090;23;20285;-76
2023/10/04 04:03:13;;;;;;;3.20;0.98;;;;;;;;;;6099288;23;20006;-78
2023/10/04 04:05:41;;;;;;;5.38;1.00;;;;;;;;;;6100319;23;20017;-77
2023/10/04 04:08:13;;;;;;;2.15;1.15;;;;;;;;;;6125671;23;20006;-78
2023/10/04 04:10:40;;;;;;;6.60;0.90;;;;;;;;;;6101479;23;20383;-73
2023/10/04 04:13:07;;;;;;;6.55;2.15;;;;;;;;;;6124286;23;20454;-72
2023/10/04 04:15:35;;;;;;;3.63;1.40;;;;;;;;;;6098393;23;20006;-72
2023/10/04 04:18:44;;;;;;;1.33;0.90;;;;;;;;;;6074530;23;20101;-71
2023/10/04 04:20:53;;;;;;;2.25;1.63;;;;;;;;;;6116184;23;20440;-72
2023/10/04 04:23:22;;;;;;;3.70;1.27;;;;;;;;;;6074635;23;20401;-73
2023/10/04 04:25:53;;;;;;;3.03;1.30;;;;;;;;;;6098398;23;20006;-73
2023/10/04 04:28:20;;;;;;;5.35;1.33;;;;;;;;;;6124949;23;20364;-73
2023/10/04 04:30:51;;;;;;;4.80;1.63;;;;;;;;;;6098348;23;20088;-71
2023/10/04 04:33:28;;;;;;;3.67;1.52;;;;;;;;;;6124806;23;20069;-72
2023/10/04 04:36:00;;;;;;;3.08;1.40;;;;;;;;;;6127038;23;20006;-72
2023/10/04 04:38:29;;;;;;;2.17;1.20;;;;;;;;;;6100497;23;20089;-72
2023/10/04 04:40:56;;;;;;;2.47;1.20;;;;;;;;;;6099241;23;20010;-71
2023/10/04 04:45:56;;;;;;;3.00;1.60;;;;;;;;;;6124067;23;20010;-72
2023/10/04 04:48:25;;;;;;;20.17;3.08;;;;;;;;;;6123716;23;20036;-72
2023/10/04 04:50:59;;;;;;;7.85;1.67;;;;;;;;;;6125467;23;20032;-74
2023/10/04 04:53:27;;;;;;;4.30;2.03;;;;;;;;;;6124562;23;20009;-73
2023/10/04 04:55:57;;;;;;;4.82;1.45;;;;;;;;;;6099632;23;20005;-73
2023/10/04 04:58:23;;;;;;;13.85;2.80;;;;;;;;;;6125440;23;20030;-73
2023/10/04 05:00:50;;;;;;;5.03;1.60;;;;;;;;;;6123137;23;20069;-73
2023/10/04 05:03:17;;;;;;;4.75;1.42;;;;;;;;;;6100586;23;20451;-73
2023/10/04 05:05:43;;;;;;;9.60;1.60;;;;;;;;;;6125783;23;20006;-71
2023/10/04 05:08:10;;;;;;;5.35;1.70;;;;;;;;;;6125928;23;20013;-77
2023/10/04 05:10:39;;;;;;;2.60;1.60;;;;;;;;;;6099537;23;20089;-73
2023/10/04 05:13:13;;;;;;;4.05;1.52;;;;;;;;;;6121048;23;20017;-74
2023/10/04 05:15:42;;;;;;;6.75;1.60;;;;;;;;;;6099161;23;20018;-71
2023/10/04 05:18:16;;;;;;;4.13;1.48;;;;;;;;;;6098521;23;20057;-73
2023/10/04 05:20:45;;;;;;;12.38;2.03;;;;;;;;;;6100468;23;20018;-73
2023/10/04 05:23:24;;;;;;;3.67;2.22;;;;;;;;;;6125634;23;20029;-72
2023/10/04 05:25:52;;;;;;;5.18;1.60;;;;;;;;;;6099475;23;20009;-73
2023/10/04 05:28:19;;;;;;;5.65;1.58;;;;;;;;;;6100362;23;20060;-72
2023/10/04 05:30:51;;;;;;;7.47;2.20;;;;;;;;;;6126669;23;20002;-72
2023/10/04 05:33:19;;;;;;;4.18;1.75;;;;;;;;;;6126940;23;20002;-75
2023/10/04 05:35:47;;;;;;;4.43;1.77;;;;;;;;;;6100493;23;20098;-73
2023/10/04 05:38:20;;;;;;;4.78;1.65;;;;;;;;;;6127748;23;20002;-72
2023/10/04 05:40:49;;;;;;;1.95;1.58;;;;;;;;;;6124634;23;20092;-72
2023/10/04 05:43:17;;;;;;;3.47;1.65;;;;;;;;;;6123983;23;20009;-74
2023/10/04 05:45:48;;;;;;;4.32;1.92;;;;;;;;;;6124964;23;20006;-73
2023/10/04 05:48:15;;;;;;;1.50;1.30;;;;;;;;;;6123620;23;20339;-73
2023/10/04 05:50:42;;;;;;;3.10;1.83;;;;;;;;;;6124611;23;20002;-73
2023/10/04 05:53:08;;;;;;;4.20;1.92;;;;;;;;;;6098883;23;20402;-73
2023/10/04 05:55:36;;;;;;;5.03;1.80;;;;;;;;;;6099072;23;20065;-72
2023/10/04 05:58:07;;;;;;;4.85;1.67;;;;;;;;;;6075559;23;20014;-72
2023/10/04 06:00:41;;;;;;;5.13;2.25;;;;;;;;;;6099266;23;20010;-72
2023/10/04 06:03:13;;;;;;;6.93;2.10;;;;;;;;;;6099738;23;20009;-73
2023/10/04 06:05:43;;;;;;;7.78;2.17;;;;;;;;;;6125663;23;20013;-75
2023/10/04 06:08:21;;;;;;;3.70;1.33;;;;;;;;;;6098810;23;20010;-74
2023/10/04 06:10:48;;;;;;;5.43;1.50;;;;;;;;;;6096828;23;20038;-75
2023/10/04 06:13:17;;;;;;;12.48;2.03;;;;;;;;;;6123695;23;20089;-72
2023/10/04 06:15:47;;;;;;;2.03;1.50;;;;;;;;;;6124381;23;20078;-72
2023/10/04 06:18:16;;;;;;;6.10;1.40;;;;;;;;;;6094743;23;20022;-74
2023/10/04 06:20:43;;;;;;;4.82;2.13;;;;;;;;;;6098027;23;20383;-73
2023/10/04 06:23:14;;;;;;;7.38;2.72;;;;;;;;;;6097519;23;20014;-74
2023/10/04 06:25:52;;;;;;;5.75;1.83;;;;;;;;;;6098952;23;20033;-75
2023/10/04 06:28:19;;;;;;;3.28;1.60;;;;;;;;;;6121750;23;20037;-73
2023/10/04 06:30:48;;;;;;;4.68;1.95;;;;;;;;;;6115206;23;20069;-73
2023/10/04 06:33:15;;;;;;;6.22;2.00;;;;;;;;;;6098995;23;20627;-73
2023/10/04 06:35:46;;;;;;;7.15;2.20;;;;;;;;;;6126048;23;20006;-73
2023/10/04 06:38:15;;;;;;;6.40;3.53;;;;;;;;;;6100769;23;20020;-72
2023/10/04 06:40:42;;;;;;;5.50;3.33;;;;;;;;;;6124456;23;20093;-72
2023/10/04 06:43:10;;;;;;;5.65;1.80;;;;;;;;;;6125236;23;20032;-73
2023/10/04 06:45:39;;;;;;;2.78;1.98;;;;;;;;;;6121335;23;20352;-74
2023/10/04 06:48:07;;;;;;;4.50;2.28;;;;;;;;;;6096964;23;20069;-77
2023/10/04 06:50:38;;;;;;;3.42;1.98;;;;;;;;;;6122364;23;20002;-72
2023/10/04 06:53:06;;;;;;;2.75;1.80;;;;;;;;;;6120264;23;20010;-73
2023/10/04 06:55:34;;;;;;;8.95;2.95;;;;;;;;;;6121058;23;20016;-73
2023/10/04 06:58:01;;;;;;;6.45;2.22;;;;;;;;;;6120100;23;20019;-74
2023/10/04 07:00:30;;;;;;;3.17;1.65;;;;;;;;;;6096934;23;20010;-73
2023/10/04 07:03:05;;;;;;;3.10;1.50;;;;;;;;;;6098220;23;20515;-73
2023/10/04 07:05:41;;;;;;;2.90;1.70;;;;;;;;;;6096663;23;20006;-70
2023/10/04 07:08:15;;;;;;;4.78;1.83;;;;;;;;;;6121292;23;20006;-72
2023/10/04 07:10:42;;;;;;;5.15;2.05;;;;;;;;;;6120887;23;20120;-74
2023/10/04 07:13:08;;;;;;;4.15;2.03;;;;;;;;;;6068082;23;20025;-75
2023/10/04 07:15:41;;;;;;;4.40;2.13;;;;;;;;;;6092697;23;20010;-75
2023/10/04 07:18:12;;;;;;;3.08;1.98;;;;;;;;;;6095117;23;20025;-72
2023/10/04 07:20:39;;;;;;;2.45;1.60;;;;;;;;;;6093029;23;20014;-71
2023/10/04 07:23:07;;;;;;;5.70;1.88;;;;;;;;;;6119195;23;20010;-74
2023/10/04 07:25:47;;;;;;;4.50;1.95;;;;;;;;;;6094258;23;20013;-74
2023/10/04 07:28:13;;;;;;;3.33;1.95;;;;;;;;;;6116786;23;20013;-72
2023/10/04 07:30:41;;;;;;;3.55;1.65;;;;;;;;;;6093561;23;20120;-75
2023/10/04 07:33:07;;;;;;;2.17;1.52;;;;;;;;;;6117565;23;20463;-71
2023/10/04 07:35:34;;;;;;;4.10;2.10;;;;;;;;;;6119381;23;20006;-72
2023/10/04 07:38:04;;;;;;;3.55;1.90;;;;;;;;;;6091711;23;20081;-74
2023/10/04 07:40:31;;;;;;;3.67;2.20;;;;;;;;;;6120418;23;20040;-75
2023/10/04 07:42:56;;;;;;;8.00;2.42;;;;;;;;;;6091704;23;20380;-73
2023/10/04 07:45:23;;;;;;;4.68;2.53;;;;;;;;;;6094256;23;20073;-74
2023/10/04 07:47:50;;;;;;;4.72;2.35;;;;;;;;;;6119882;23;20029;-76
2023/10/04 07:50:22;;;;;;;2.42;1.83;;;;;;;;;;6094093;23;20328;-74
2023/10/04 07:52:50;;;;;;;4.32;2.20;;;;;;;;;;6119781;23;20008;-73
2023/10/04 07:55:19;;;;;;;5.03;2.17;;;;;;;;;;6096224;23;20085;-73
2023/10/04 07:57:53;;;;;;;7.50;2.15;;;;;;;;;;6097088;23;20013;-74
2023/10/04 08:00:20;;;;;;;4.20;1.98;;;;;;;;;;6095073;23;20022;-73
2023/10/04 08:02:50;;;;;;;5.80;2.22;;;;;;;;;;6119556;23;20002;-75
2023/10/04 08:05:20;;;;;;;4.25;2.03;;;;;;;;;;6120791;23;20005;-74
2023/10/04 08:07:58;;;;;;;3.97;2.15;;;;;;;;;;6120080;23;20021;-73
2023/10/04 08:10:29;;;;;;;5.20;1.90;;;;;;;;;;6093795;23;20375;-74
2023/10/04 08:12:56;;;;;;;6.43;2.72;;;;;;;;;;6118358;23;20026;-74
2023/10/04 08:15:27;;;;;;;2.92;2.03;;;;;;;;;;6094413;23;20014;-75
2023/10/04 08:17:58;;;;;;;6.30;2.15;;;;;;;;;;6119606;23;20008;-73
2023/10/04 08:20:26;;;;;;;6.23;2.40;;;;;;;;;;6070702;23;20319;-75
2023/10/04 08:22:51;;;;;;;5.75;2.47;;;;;;;;;;6094379;23;20286;-73
2023/10/04 08:25:21;;;;;;;7.97;2.40;;;;;;;;;;6121529;23;20427;-72
2023/10/04 08:27:48;;;;;;;4.13;1.92;;;;;;;;;;6120559;23;20012;-73
2023/10/04 08:30:15;;;;;;;5.85;2.35;;;;;;;;;;6122255;23;20068;-74
2023/10/04 08:32:42;;;;;;;6.38;2.33;;;;;;;;;;6121089;23;20010;-74
2023/10/04 08:35:21;;;;;;;9.48;2.22;;;;;;;;;;6122375;23;20315;-75
2023/10/04 08:37:48;;;;;;;4.93;2.45;;;;;;;;;;6098381;23;20014;-75
2023/10/04 08:40:18;;;;;;;5.18;2.78;;;;;;;;;;6093507;23;20018;-74
2023/10/04 08:42:48;;;;;;;8.50;3.30;;;;;;;;;;6094970;23;20017;-75
2023/10/04 08:45:15;;;;;;;16.52;8.70;;;;;;;;;;6096227;23;20020;-77
2023/10/04 08:47:47;;;;;;;20.02;5.35;;;;;;;;;;6119564;23;20017;-73
2023/10/04 08:50:15;;;;;;;3.78;2.72;;;;;;;;;;6095706;23;20002;-72
2023/10/04 08:52:43;;;;;;;4.20;2.50;;;;;;;;;;6095097;23;20017;-74
2023/10/04 08:55:16;;;;;;;7.10;2.38;;;;;;;;;;6093906;23;20013;-72
2023/10/04 08:57:43;;;;;;;4.65;2.03;;;;;;;;;;6094910;23;20012;-73
2023/10/04 09:00:13;;;;;;;8.02;2.80;;;;;;;;;;6095493;23;20014;-75
2023/10/04 09:02:45;;;;;;;6.78;2.22;;;;;;;;;;6095302;23;20021;-75
2023/10/04 09:05:16;;;;;;;7.65;2.30;;;;;;;;;;6122544;23;20013;-74
2023/10/04 09:07:45;;;;;;;4.47;2.13;;;;;;;;;;6095701;23;20002;-73
2023/10/04 09:10:15;;;;;;;5.07;2.15;;;;;;;;;;6121023;23;20256;-74
2023/10/04 09:12:43;;;;;;;5.85;2.22;;;;;;;;;;6119620;23;20002;-76
2023/10/04 09:15:13;;;;;;;9.38;2.47;;;;;;;;;;6071828;23;20145;-73
2023/10/04 09:17:56;;;;;;;8.07;2.88;;;;;;;;;;6119583;23;20081;-76
2023/10/04 09:20:30;;;;;;;3.70;2.00;;;;;;;;;;6120395;23;20010;-74
2023/10/04 09:22:59;;;;;;;4.45;1.90;;;;;;;;;;6120098;23;20025;-77
2023/10/04 09:25:39;;;;;;;5.28;2.15;;;;;;;;;;6121100;23;20010;-75
2023/10/04 09:28:09;;;;;;;6.80;3.65;;;;;;;;;;6095569;23;20017;-75
2023/10/04 09:30:36;;;;;;;8.25;3.03;;;;;;;;;;6095129;23;20442;-74
2023/10/04 09:33:20;;;;;;;8.00;2.90;;;;;;;;;;6095343;23;20176;-77
2023/10/04 09:35:46;;;;;;;4.18;2.33;;;;;;;;;;6092746;23;20061;-75
2023/10/04 09:38:18;;;;;;;4.72;2.40;;;;;;;;;;6096014;23;20430;-74
2023/10/04 09:40:55;;;;;;;3.63;2.17;;;;;;;;;;6094125;23;20010;-72
2023/10/04 09:43:37;;;;;;;4.57;1.95;;;;;;;;;;6069985;23;20014;-75
2023/10/04 09:46:04;;;;;;;;;;;;;;;;;;6120181;23;20460;-73
2023/10/04 09:48:31;;;;;;;13.80;5.05;;;;;;;;;;6120632;23;19905;-74
2023/10/04 09:51:00;;;;;;;6.85;2.13;;;;;;;;;;6120517;23;20057;-74
2023/10/04 09:53:25;;;;;;;6.65;2.13;;;;;;;;;;6094687;23;20026;-74
2023/10/04 09:55:53;;;;;;;5.30;2.22;;;;;;;;;;6094699;23;20013;-75
2023/10/04 09:58:24;;;;;;;4.10;1.50;;;;;;;;;;6070601;23;20045;-74
2023/10/04 10:00:52;;;;;;;3.92;1.83;;;;;;;;;;6094646;23;20013;-75
2023/10/04 10:03:25;;;;;;;2.47;1.67;;;;;;;;;;6121066;23;20005;-76
2023/10/04 10:05:52;;;;;;;6.85;2.38;;;;;;;;;;6095154;23;20182;-74
2023/10/04 10:08:18;;;;;;;4.97;2.08;;;;;;;;;;6122432;23;20006;-75
2023/10/04 10:10:45;;;;;;;4.90;1.98;;;;;;;;;;6122080;23;20061;-72
2023/10/04 10:13:13;;;;;;;3.50;1.67;;;;;;;;;;6119724;23;20032;-75
2023/10/04 10:15:41;;;;;;;5.40;2.13;;;;;;;;;;6095962;23;20018;-75
2023/10/04 10:18:08;;;;;;;6.82;1.80;;;;;;;;;;6097309;23;20339;-73
2023/10/04 10:20:34;;;;;;;4.97;2.72;;;;;;;;;;6098914;23;20064;-73
2023/10/04 10:22:59;;;;;;;8.15;1.92;;;;;;;;;;6128392;23;20017;-72
2023/10/04 10:25:27;;;;;;;14.63;6.18;;;;;;;;;;6123974;23;20041;-74
2023/10/04 10:27:57;;;;;;;6.63;2.75;;;;;;;;;;6093340;23;20014;-72
2023/10/04 10:30:24;;;;;;;3.92;1.92;;;;;;;;;;6117989;23;20012;-72
2023/10/04 10:32:55;;;;;;;4.13;1.63;;;;;;;;;;6119936;23;20059;-73
2023/10/04 10:35:59;;;;;;;4.50;1.73;;;;;;;;;;6121095;23;20030;-73
2023/10/04 10:38:39;;;;;;;5.00;1.55;;;;;;;;;;6066716;23;20013;-73
2023/10/04 10:41:06;;;;;;;3.17;1.77;;;;;;;;;;6097249;23;20095;-74
2023/10/04 10:43:35;;;;;;;3.95;1.60;;;;;;;;;;6096222;23;20041;-74
2023/10/04 10:46:28;;;;;;;2.80;1.77;;;;;;;;;;6097217;23;20009;-74
2023/10/04 10:48:58;;;;;;;3.83;1.83;;;;;;;;;;6073461;23;20013;-73
2023/10/04 10:51:43;;;;;;;3.90;1.50;;;;;;;;;;6124168;23;20048;-74
2023/10/04 10:54:09;;;;;;;5.97;1.63;;;;;;;;;;6100816;23;20010;-74
2023/10/04 10:56:37;;;;;;;3.08;1.67;;;;;;;;;;6101310;23;20040;-75
2023/10/04 10:59:05;;;;;;;5.28;1.70;;;;;;;;;;6122629;23;20006;-74
2023/10/04 11:01:31;;;;;;;2.55;1.30;;;;;;;;;;6094239;23;20010;-73
2023/10/04 11:03:58;;;;;;;3.88;1.35;;;;;;;;;;6094298;23;20462;-75
2023/10/04 11:06:26;;;;;;;3.42;1.73;;;;;;;;;;6121017;23;20455;-72
2023/10/04 11:08:55;;;;;;;6.65;1.73;;;;;;;;;;6060327;23;20022;-74
2023/10/04 11:11:25;;;;;;;8.20;1.90;;;;;;;;;;6094384;23;20085;-73
2023/10/04 11:13:53;;;;;;;3.00;1.55;;;;;;;;;;6093750;23;20013;-73
2023/10/04 11:16:21;;;;;;;2.33;1.20;;;;;;;;;;6119487;23;20001;-74
2023/10/04 11:18:47;;;;;;;2.83;1.58;;;;;;;;;;6066532;23;20058;-74
2023/10/04 11:21:14;;;;;;;4.97;1.50;;;;;;;;;;6115656;23;20412;-73
2023/10/04 11:23:40;;;;;;;2.17;1.25;;;;;;;;;;6091057;23;20037;-76
2023/10/04 11:26:08;;;;;;;4.88;1.73;;;;;;;;;;6089269;23;20007;-72
2023/10/04 11:28:35;;;;;;;5.45;1.48;;;;;;;;;;6090756;23;20010;-74
2023/10/04 11:31:01;;;;;;;3.95;1.33;;;;;;;;;;6089372;23;19998;-74
2023/10/04 11:33:27;;;;;;;5.97;1.55;;;;;;;;;;6088830;23;20413;-74
2023/10/04 11:35:53;;;;;;;3.72;1.70;;;;;;;;;;6091138;23;20006;-73
2023/10/04 11:38:19;;;;;;;4.13;1.88;;;;;;;;;;6089296;23;20014;-73
2023/10/04 11:40:47;;;;;;;6.03;1.88;;;;;;;;;;6089276;23;20014;-75
2023/10/04 11:43:14;;;;;;;3.10;1.55;;;;;;;;;;6090560;23;20010;-74
2023/10/04 11:45:40;;;;;;;3.42;2.00;;;;;;;;;;6088126;23;20073;-77
2023/10/04 11:48:08;;;;;;;3.25;1.90;;;;;;;;;;6087578;23;20196;-75
2023/10/04 11:50:48;;;;;;;4.13;1.52;;;;;;;;;;6089168;23;20097;-73
2023/10/04 11:53:30;;;;;;;7.97;2.03;;;;;;;;;;6089601;23;20040;-72
2023/10/04 11:56:07;;;;;;;3.22;1.95;;;;;;;;;;6086775;23;20010;-72
2023/10/04 11:58:52;;;;;;;3.13;1.67;;;;;;;;;;6084554;23;20069;-78
2023/10/04 12:01:20;;;;;;;2.95;1.83;;;;;;;;;;6086827;23;20300;-76
2023/10/04 12:03:56;;;;;;;3.58;1.70;;;;;;;;;;6090118;23;20012;-79
2023/10/04 12:06:27;;;;;;;4.07;1.17;;;;;;;;;;6088508;23;20010;-77
2023/10/04 12:08:54;;;;;;;3.95;1.38;;;;;;;;;;6083388;23;20030;-76
2023/10/04 12:11:25;;;;;;;16.75;6.82;;;;;;;;;;6088082;23;20010;-78
2023/10/04 12:13:58;;;;;;;4.45;2.15;;;;;;;;;;6089682;23;20143;-78
2023/10/04 12:16:28;;;;;;;3.90;2.00;;;;;;;;;;6091524;23;20061;-79
2023/10/04 12:18:56;;;;;;;2.10;1.27;;;;;;;;;;6088768;23;20038;-79
2023/10/04 12:21:28;;;;;;;3.45;1.48;;;;;;;;;;6088127;23;20076;-78
2023/10/04 12:24:02;;;;;;;4.78;1.50;;;;;;;;;;6065285;23;20007;-76
2023/10/04 12:26:45;;;;;;;5.63;2.15;;;;;;;;;;6070349;23;20006;-77
2023/10/04 12:29:21;;;;;;;2.78;1.55;;;;;;;;;;6096126;23;20037;-78
2023/10/04 12:31:50;;;;;;;4.18;1.70;;;;;;;;;;6094295;23;20010;-76
2023/10/04 12:34:20;;;;;;;2.60;1.70;;;;;;;;;;6064888;23;20417;-79
2023/10/04 12:36:55;;;;;;;2.47;1.30;;;;;;;;;;6086441;23;20101;-79
2023/10/04 12:39:22;;;;;;;4.70;1.75;;;;;;;;;;6086615;23;20470;-78
2023/10/04 12:41:59;;;;;;;1.83;1.27;;;;;;;;;;6087541;23;20476;-77
2023/10/04 12:44:27;;;;;;;4.32;1.55;;;;;;;;;;6089611;23;20068;-77
2023/10/04 12:46:54;;;;;;;4.38;1.58;;;;;;;;;;6104627;23;20002;-78
2023/10/04 12:49:23;;;;;;;4.28;1.55;;;;;;;;;;6107191;23;20010;-78
2023/10/04 12:51:53;;;;;;;6.00;2.72;;;;;;;;;;6112772;23;20351;-78
2023/10/04 12:54:25;;;;;;;9.38;5.53;;;;;;;;;;6089609;23;20038;-78
2023/10/04 12:57:02;;;;;;;6.35;3.28;;;;;;;;;;6088063;23;20312;-78
2023/10/04 12:59:33;;;;;;;12.13;5.75;;;;;;;;;;6109983;23;20050;-78
2023/10/04 13:02:00;;;;;;;11.18;7.40;;;;;;;;;;6089184;23;20022;-78
2023/10/04 13:04:29;;;;;;;3.42;1.80;;;;;;;;;;6079379;23;20049;-77
2023/10/04 13:07:01;;;;;;;2.78;1.30;;;;;;;;;;6063403;23;20006;-79
2023/10/04 13:09:44;;;;;;;4.32;1.60;;;;;;;;;;6072693;23;20022;-77
2023/10/04 13:12:13;;;;;;;4.25;1.50;;;;;;;;;;6116046;23;20719;-78
2023/10/04 13:14:39;;;;;;;5.55;1.30;;;;;;;;;;6089620;23;20007;-80
2023/10/04 13:17:06;;;;;;;2.45;1.25;;;;;;;;;;6090261;23;20054;-79
2023/10/04 13:19:45;;;;;;;;;;;;;;;;;;;;;
2023/10/04 13:22:17;;;;;;;;;;;;;;;;;;6093915;23;20562;-79
2023/10/04 13:24:43;;;;;;;2.25;1.10;;;;;;;;;;6091575;23;19925;-80
2023/10/04 13:27:09;;;;;;;3.78;1.70;;;;;;;;;;6090938;23;20014;-77
2023/10/04 13:29:38;;;;;;;2.15;1.35;;;;;;;;;;6087984;23;20672;-79
2023/10/04 13:32:08;;;;;;;2.75;1.40;;;;;;;;;;6092030;23;20003;-79
2023/10/04 13:34:35;;;;;;;2.58;1.10;;;;;;;;;;6093362;23;20455;-78
2023/10/04 13:37:01;;;;;;;2.55;1.73;;;;;;;;;;6095630;23;20010;-78
2023/10/04 13:39:33;;;;;;;7.07;1.02;;;;;;;;;;6095368;23;20010;-77
2023/10/04 13:41:59;;;;;;;3.13;1.17;;;;;;;;;;6116417;23;20010;-79
2023/10/04 13:44:28;;;;;;;2.47;0.95;;;;;;;;;;6093600;23;20033;-79
2023/10/04 13:46:57;;;;;;;3.15;1.23;;;;;;;;;;6091531;23;20014;-79
2023/10/04 13:49:24;;;;;;;5.13;1.48;;;;;;;;;;6093470;23;20243;-78
2023/10/04 13:51:57;;;;;;;5.57;2.47;;;;;;;;;;6093187;23;20007;-79
2023/10/04 13:54:29;;;;;;;4.43;1.25;;;;;;;;;;6090620;23;19998;-78
2023/10/04 13:57:05;;;;;;;2.42;1.10;;;;;;;;;;6091451;23;20331;-79
2023/10/04 13:59:34;;;;;;;1.70;1.05;;;;;;;;;;6090560;23;20095;-78
2023/10/04 14:02:01;;;;;;;7.88;2.00;;;;;;;;;;6092861;23;20010;-78
2023/10/04 14:04:33;;;;;;;3.90;1.10;;;;;;;;;;6090167;23;20037;-79
2023/10/04 14:07:03;;;;;;;4.22;2.75;;;;;;;;;;6065999;23;20006;-77
2023/10/04 14:09:32;;;;;;;3.45;1.42;;;;;;;;;;6090110;23;20024;-76
2023/10/04 14:12:01;;;;;;;2.55;1.30;;;;;;;;;;6111480;23;20026;-78
2023/10/04 14:14:36;;;;;;;2.33;1.15;;;;;;;;;;6084239;23;20033;-77
2023/10/04 14:17:12;;;;;;;5.28;1.40;;;;;;;;;;6113454;23;20021;-79
2023/10/04 14:19:39;;;;;;;20.17;7.97;;;;;;;;;;6113528;23;20466;-77
2023/10/04 14:22:08;;;;;;;7.03;2.20;;;;;;;;;;6094505;23;20332;-77
2023/10/04 14:24:37;;;;;;;4.68;1.25;;;;;;;;;;6095344;23;20109;-78
2023/10/04 14:27:03;;;;;;;4.93;1.50;;;;;;;;;;6123053;23;20006;-78
2023/10/04 14:29:31;;;;;;;2.78;1.38;;;;;;;;;;6096731;23;20032;-77
2023/10/04 14:31:57;;;;;;;3.08;1.65;;;;;;;;;;6095718;23;20037;-75
2023/10/04 14:34:23;;;;;;;3.08;1.35;;;;;;;;;;6095992;23;20013;-78
2023/10/04 14:36:49;;;;;;;5.13;1.48;;;;;;;;;;6121902;23;20634;-77
2023/10/04 14:39:14;;;;;;;7.55;1.50;;;;;;;;;;6096434;23;20620;-76
2023/10/04 14:41:41;;;;;;;2.72;1.33;;;;;;;;;;6096474;23;20009;-78
2023/10/04 14:44:07;;;;;;;4.00;1.38;;;;;;;;;;6122145;23;20077;-77
2023/10/04 14:46:32;;;;;;;5.00;1.38;;;;;;;;;;6095832;23;20041;-74
2023/10/04 14:48:58;;;;;;;3.67;1.38;;;;;;;;;;6122557;23;20104;-72
2023/10/04 14:51:25;;;;;;;6.55;1.85;;;;;;;;;;6096387;23;20008;-73
2023/10/04 14:53:51;;;;;;;2.55;1.05;;;;;;;;;;6122194;23;20372;-73
2023/10/04 14:56:17;;;;;;;2.38;1.20;;;;;;;;;;6096170;23;20418;-73
2023/10/04 14:58:43;;;;;;;3.03;2.15;;;;;;;;;;6120899;23;20010;-73
2023/10/04 15:01:12;;;;;;;4.75;1.45;;;;;;;;;;6097287;23;20014;-71
2023/10/04 15:03:38;;;;;;;2.45;1.13;;;;;;;;;;6097869;23;20010;-72